createdAt,value
2022-07-27T00:04:07.477Z,16.01
2022-07-27T00:09:09.680Z,16.06
2022-07-27T00:14:11.803Z,16.11
2022-07-27T00:19:13.825Z,16.11
2022-07-27T00:24:15.895Z,16.07
2022-07-27T00:29:18.432Z,15.99
2022-07-27T00:34:20.291Z,15.99
2022-07-27T00:39:22.063Z,15.90
2022-07-27T00:44:28.732Z,15.89
2022-07-27T00:49:30.728Z,15.90
2022-07-27T00:54:32.664Z,15.85
2022-07-27T00:59:34.676Z,15.90
2022-07-27T01:04:36.950Z,15.91
2022-07-27T01:09:56.957Z,15.94
2022-07-27T01:14:59.990Z,15.99
2022-07-27T01:20:02.085Z,16.05
2022-07-27T01:25:04.157Z,16.05
2022-07-27T01:30:26.568Z,16.07
2022-07-27T01:35:29.587Z,16.09
2022-07-27T01:40:32.513Z,16.08
2022-07-27T01:45:34.417Z,16.13
2022-07-27T01:50:36.349Z,16.17
2022-07-27T01:55:39.002Z,16.23
2022-07-27T02:00:41.773Z,16.19
2022-07-27T02:05:43.752Z,16.11
2022-07-27T02:11:04.109Z,16.04
2022-07-27T02:16:09.683Z,15.92
2022-07-27T02:21:18.709Z,15.98
2022-07-27T02:26:20.610Z,15.97
2022-07-27T02:31:22.635Z,15.99
2022-07-27T02:36:24.458Z,15.85
2022-07-27T02:41:26.341Z,15.78
2022-07-27T02:46:28.338Z,15.74
2022-07-27T02:51:30.225Z,15.73
2022-07-27T02:56:32.109Z,15.77
2022-07-27T03:01:33.948Z,15.80
2022-07-27T03:06:35.835Z,15.84
2022-07-27T03:11:38.058Z,15.99
2022-07-27T03:16:39.908Z,15.87
2022-07-27T03:21:41.681Z,15.83
2022-07-27T03:26:43.521Z,15.76
2022-07-27T03:31:45.614Z,15.67
2022-07-27T03:36:49.697Z,15.56
2022-07-27T03:41:51.531Z,15.44
2022-07-27T03:46:53.348Z,15.33
2022-07-27T03:51:55.340Z,15.00
2022-07-27T03:56:57.194Z,14.67
2022-07-27T04:01:59.056Z,14.42
2022-07-27T04:07:01.048Z,14.18
2022-07-27T04:12:02.865Z,13.98
2022-07-27T04:17:05.002Z,13.83
2022-07-27T04:22:07.042Z,13.76
2022-07-27T04:27:09.824Z,13.70
2022-07-27T04:32:11.653Z,13.69
2022-07-27T04:37:13.494Z,13.72
2022-07-27T04:42:15.340Z,13.82
2022-07-27T04:47:17.179Z,13.91
2022-07-27T04:52:19.357Z,13.98
2022-07-27T04:57:28.331Z,14.21
2022-07-27T05:02:33.333Z,14.35
2022-07-27T05:07:35.462Z,14.47
2022-07-27T05:12:38.776Z,14.38
2022-07-27T05:17:40.583Z,14.40
2022-07-27T05:22:42.447Z,14.15
2022-07-27T05:27:53.882Z,14.22
2022-07-27T05:32:56.902Z,14.21
2022-07-27T05:37:58.752Z,14.27
2022-07-27T05:43:01.069Z,14.23
2022-07-27T05:48:03.043Z,14.26
2022-07-27T05:53:04.985Z,14.36
2022-07-27T05:58:06.842Z,14.48
2022-07-27T06:03:08.687Z,14.42
2022-07-27T06:08:10.505Z,14.75
2022-07-27T06:13:12.374Z,14.89
2022-07-27T06:18:18.256Z,14.86
2022-07-27T06:23:20.105Z,14.85
2022-07-27T06:28:21.975Z,14.83
2022-07-27T06:33:32.531Z,14.99
2022-07-27T06:38:35.077Z,15.16
2022-07-27T06:43:36.980Z,15.13
2022-07-27T06:48:42.157Z,15.13
2022-07-27T06:53:44.003Z,15.31
2022-07-27T06:58:45.992Z,15.28
2022-07-27T07:03:48.251Z,15.20
2022-07-27T07:08:50.080Z,15.45
2022-07-27T07:13:51.983Z,15.75
2022-07-27T07:18:53.799Z,15.67
2022-07-27T07:23:55.848Z,15.49
2022-07-27T07:28:57.707Z,15.63
2022-07-27T07:33:59.833Z,15.88
2022-07-27T07:39:01.686Z,15.98
2022-07-27T07:44:04.139Z,16.03
2022-07-27T07:49:06.316Z,16.27
2022-07-27T07:54:08.988Z,17.08
2022-07-27T07:59:11.299Z,17.13
2022-07-27T08:04:14.049Z,17.17
2022-07-27T08:09:17.804Z,17.24
2022-07-27T08:14:19.621Z,17.51
2022-07-27T08:19:21.482Z,17.04
2022-07-27T08:24:23.275Z,17.09
2022-07-27T08:29:25.152Z,16.94
2022-07-27T08:34:38.685Z,16.97
2022-07-27T08:45:03.421Z,17.86
2022-07-27T08:50:23.215Z,17.92
2022-07-27T08:55:25.101Z,18.07
2022-07-27T09:00:27.870Z,18.60
2022-07-27T09:05:36.985Z,19.48
2022-07-27T09:10:40.645Z,19.54
2022-07-27T09:21:22.891Z,19.05
2022-07-27T09:26:34.390Z,18.03
2022-07-27T09:31:48.741Z,18.26
2022-07-27T09:36:55.985Z,18.05
2022-07-27T09:42:01.365Z,17.91
2022-07-27T09:47:27.258Z,18.45
2022-07-27T09:52:30.842Z,18.88
2022-07-27T09:57:54.393Z,20.15
2022-07-27T10:02:57.911Z,20.19
2022-07-27T10:07:59.783Z,20.77
2022-07-27T10:13:01.605Z,21.39
2022-07-27T10:18:10.607Z,21.26
2022-07-27T10:23:34.879Z,21.89
2022-07-27T10:28:58.490Z,20.18
2022-07-27T10:34:03.862Z,20.72
2022-07-27T10:39:06.898Z,21.23
2022-07-27T10:44:28.600Z,20.85
2022-07-27T10:49:40.421Z,21.68
2022-07-27T10:54:45.766Z,22.37
2022-07-27T11:00:08.087Z,22.12
2022-07-27T11:05:32.817Z,22.68
2022-07-27T11:10:44.219Z,23.19
2022-07-27T11:16:23.940Z,24.61
2022-07-27T11:21:29.807Z,24.38
2022-07-27T11:26:43.362Z,27.00
2022-07-27T11:31:56.534Z,28.05
2022-07-27T11:37:04.152Z,27.84
2022-07-27T11:42:09.055Z,29.94
2022-07-27T11:47:19.410Z,29.55
2022-07-27T11:52:21.218Z,27.41
2022-07-27T11:57:32.294Z,29.29
2022-07-27T12:02:34.185Z,31.42
2022-07-27T12:07:37.015Z,32.47
2022-07-27T12:12:38.839Z,28.24
2022-07-27T12:17:42.810Z,25.49
2022-07-27T12:22:53.180Z,26.56
2022-07-27T12:28:08.385Z,32.32
2022-07-27T12:33:37.333Z,36.59
2022-07-27T12:38:46.500Z,36.82
2022-07-27T12:44:10.960Z,38.35
2022-07-27T12:49:16.700Z,36.21
2022-07-27T12:54:19.002Z,30.17
2022-07-27T12:59:23.391Z,30.11
2022-07-27T13:04:25.241Z,28.02
2022-07-27T13:10:02.041Z,28.15
2022-07-27T13:14:48.878Z,28.37
2022-07-27T13:19:50.724Z,27.16
2022-07-27T13:24:52.566Z,33.80
2022-07-27T13:29:56.069Z,37.96
2022-07-27T13:34:57.932Z,39.88
2022-07-27T13:40:00.051Z,40.84
2022-07-27T13:45:11.211Z,40.97
2022-07-27T13:50:18.753Z,39.10
2022-07-27T13:55:27.760Z,39.41
2022-07-27T14:00:29.980Z,41.69
2022-07-27T14:05:31.996Z,43.61
2022-07-27T14:10:44.506Z,36.64
2022-07-27T14:15:53.255Z,40.16
2022-07-27T14:20:59.373Z,38.49
2022-07-27T14:26:03.516Z,31.21
2022-07-27T14:31:10.391Z,30.78
2022-07-27T14:36:12.230Z,32.93
2022-07-27T14:41:14.005Z,34.00
2022-07-27T14:46:15.875Z,29.69
2022-07-27T14:51:17.758Z,30.48
2022-07-27T14:56:19.609Z,34.04
2022-07-27T15:01:21.559Z,37.25
2022-07-27T15:06:24.008Z,41.50
2022-07-27T15:11:25.852Z,41.64
2022-07-27T15:16:27.741Z,43.24
2022-07-27T15:21:32.304Z,42.32
2022-07-27T15:26:34.769Z,37.19
2022-07-27T15:31:37.051Z,35.59
2022-07-27T15:36:45.917Z,30.67
2022-07-27T15:41:51.873Z,27.10
2022-07-27T15:46:54.415Z,26.55
2022-07-27T15:51:56.291Z,25.61
2022-07-27T15:56:58.196Z,24.53
2022-07-27T16:02:00.082Z,23.78
2022-07-27T16:07:01.929Z,23.12
2022-07-27T16:12:03.908Z,22.56
2022-07-27T16:17:05.844Z,22.19
2022-07-27T16:22:07.727Z,22.39
2022-07-27T16:27:11.773Z,22.10
2022-07-27T16:32:13.637Z,22.11
2022-07-27T16:37:15.439Z,22.05
2022-07-27T16:42:17.280Z,21.32
2022-07-27T16:47:21.360Z,21.18
2022-07-27T16:52:23.183Z,20.85
2022-07-27T16:57:25.010Z,20.88
2022-07-27T17:02:30.544Z,20.54
2022-07-27T17:07:32.595Z,20.63
2022-07-27T17:12:38.897Z,20.77
2022-07-27T17:17:41.424Z,20.83
2022-07-27T17:22:43.268Z,20.41
2022-07-27T17:27:45.317Z,19.95
2022-07-27T17:32:47.280Z,19.51
2022-07-27T17:38:05.570Z,19.49
2022-07-27T17:43:08.174Z,19.10
2022-07-27T17:48:10.030Z,18.91
2022-07-27T17:53:11.864Z,18.65
2022-07-27T17:58:14.415Z,18.54
2022-07-27T18:03:17.375Z,18.31
2022-07-27T18:08:19.354Z,18.17
2022-07-27T18:13:21.221Z,18.05
2022-07-27T18:18:25.095Z,17.88
2022-07-27T18:23:27.273Z,17.66
2022-07-27T18:28:29.184Z,17.41
2022-07-27T18:33:36.757Z,17.24
2022-07-27T18:38:39.341Z,16.99
2022-07-27T18:43:41.430Z,16.75
2022-07-27T18:48:44.406Z,16.55
2022-07-27T18:53:46.356Z,16.32
2022-07-27T18:58:48.931Z,16.09
2022-07-27T19:03:50.860Z,15.80
2022-07-27T19:08:52.749Z,15.66
2022-07-27T19:13:57.842Z,15.48
2022-07-27T19:18:59.671Z,15.29
2022-07-27T19:24:01.489Z,15.00
2022-07-27T19:29:03.594Z,14.71
2022-07-27T19:34:05.548Z,14.37
2022-07-27T19:39:08.288Z,14.17
2022-07-27T19:44:10.467Z,13.92
2022-07-27T19:49:12.790Z,13.89
2022-07-27T19:54:15.105Z,13.55
2022-07-27T19:59:16.957Z,13.36
2022-07-27T20:04:18.861Z,13.16
2022-07-27T20:09:20.735Z,12.92
2022-07-27T20:14:23.039Z,12.82
2022-07-27T20:19:29.953Z,12.67
2022-07-27T20:24:31.891Z,12.51
2022-07-27T20:29:33.792Z,12.33
2022-07-27T20:34:35.783Z,12.18
2022-07-27T20:39:37.569Z,12.04
2022-07-27T20:44:42.192Z,11.94
2022-07-27T20:49:44.184Z,11.80
2022-07-27T20:54:46.027Z,11.65
2022-07-27T20:59:47.809Z,11.72
2022-07-27T21:04:49.616Z,11.58
2022-07-27T21:09:51.436Z,11.38
2022-07-27T21:14:53.343Z,11.25
2022-07-27T21:19:57.639Z,11.17
2022-07-27T21:24:59.483Z,11.00
2022-07-27T21:30:01.920Z,10.95
2022-07-27T21:35:06.858Z,10.85
2022-07-27T21:40:12.274Z,10.65
2022-07-27T21:45:14.092Z,10.61
2022-07-27T21:50:16.015Z,10.51
2022-07-27T21:55:23.092Z,10.41
2022-07-27T22:00:29.389Z,10.32
2022-07-27T22:05:31.589Z,10.23
2022-07-27T22:10:33.438Z,10.16
2022-07-27T22:15:35.321Z,10.14
2022-07-27T22:20:37.139Z,10.00
2022-07-27T22:25:39.485Z,9.86
2022-07-27T22:30:41.579Z,9.90
2022-07-27T22:35:44.041Z,9.86
2022-07-27T22:40:45.960Z,9.76
2022-07-27T22:45:52.087Z,9.66
2022-07-27T22:50:54.124Z,9.59
2022-07-27T22:55:56.345Z,9.48
2022-07-27T23:00:59.918Z,9.36
2022-07-27T23:06:01.901Z,9.25
2022-07-27T23:11:03.793Z,9.22
2022-07-27T23:16:06.072Z,9.16
2022-07-27T23:21:09.298Z,9.13
2022-07-27T23:26:11.725Z,9.01
2022-07-27T23:31:17.723Z,8.89
2022-07-27T23:36:19.671Z,8.82
2022-07-27T23:41:23.452Z,8.84
2022-07-27T23:46:27.515Z,8.71
2022-07-27T23:51:29.449Z,8.65
2022-07-27T23:56:31.250Z,8.59
